sensor_id;sensor_type;location;lat;lon;timestamp;temperature;humidity
9223;DHT22;7557;51.698;3.942;2023-04-01T00:02:06;10.60;99.90
9223;DHT22;7557;51.698;3.942;2023-04-01T00:04:34;10.70;99.90
9223;DHT22;7557;51.698;3.942;2023-04-01T00:07:02;10.60;99.90
9223;DHT22;7557;51.698;3.942;2023-04-01T00:09:31;10.60;99.90
9223;DHT22;7557;51.698;3.942;2023-04-01T00:11:58;10.60;99.90
9223;DHT22;7557;51.698;3.942;2023-04-01T00:14:26;10.60;99.90
9223;DHT22;7557;51.698;3.942;2023-04-01T00:16:56;10.60;99.90
9223;DHT22;7557;51.698;3.942;2023-04-01T00:19:24;10.50;99.90
9223;DHT22;7557;51.698;3.942;2023-04-01T00:21:51;10.60;99.90
9223;DHT22;7557;51.698;3.942;2023-04-01T00:24:19;10.50;99.90
9223;DHT22;7557;51.698;3.942;2023-04-01T00:26:47;10.50;99.90
9223;DHT22;7557;51.698;3.942;2023-04-01T00:29:14;10.50;99.90
9223;DHT22;7557;51.698;3.942;2023-04-01T00:31:42;10.50;99.90
9223;DHT22;7557;51.698;3.942;2023-04-01T00:34:11;10.50;99.90
9223;DHT22;7557;51.698;3.942;2023-04-01T00:36:39;10.50;99.90
9223;DHT22;7557;51.698;3.942;2023-04-01T00:39:06;10.60;99.90
9223;DHT22;7557;51.698;3.942;2023-04-01T00:41:34;10.60;99.90
9223;DHT22;7557;51.698;3.942;2023-04-01T00:44:19;10.60;99.90
9223;DHT22;7557;51.698;3.942;2023-04-01T00:46:48;10.60;99.90
9223;DHT22;7557;51.698;3.942;2023-04-01T00:49:18;10.60;99.90
9223;DHT22;7557;51.698;3.942;2023-04-01T00:51:53;10.50;99.90
9223;DHT22;7557;51.698;3.942;2023-04-01T00:54:25;10.60;99.90
9223;DHT22;7557;51.698;3.942;2023-04-01T00:56:57;10.50;99.90
9223;DHT22;7557;51.698;3.942;2023-04-01T00:59:30;10.60;99.90
9223;DHT22;7557;51.698;3.942;2023-04-01T01:01:58;10.50;99.90
9223;DHT22;7557;51.698;3.942;2023-04-01T01:04:29;10.60;99.90
9223;DHT22;7557;51.698;3.942;2023-04-01T01:07:04;10.50;99.90
9223;DHT22;7557;51.698;3.942;2023-04-01T01:09:43;10.50;99.90
9223;DHT22;7557;51.698;3.942;2023-04-01T01:12:15;10.50;99.90
9223;DHT22;7557;51.698;3.942;2023-04-01T01:14:58;10.40;99.90
9223;DHT22;7557;51.698;3.942;2023-04-01T01:17:36;10.40;99.90
9223;DHT22;7557;51.698;3.942;2023-04-01T01:20:38;10.40;99.90
9223;DHT22;7557;51.698;3.942;2023-04-01T01:23:43;10.40;99.90
9223;DHT22;7557;51.698;3.942;2023-04-01T01:26:46;10.40;99.90
9223;DHT22;7557;51.698;3.942;2023-04-01T01:29:52;10.40;99.90
9223;DHT22;7557;51.698;3.942;2023-04-01T01:35:20;10.30;99.90
9223;DHT22;7557;51.698;3.942;2023-04-01T01:37:52;10.20;99.90
9223;DHT22;7557;51.698;3.942;2023-04-01T01:40:21;10.20;99.90
9223;DHT22;7557;51.698;3.942;2023-04-01T01:42:51;10.20;99.90
9223;DHT22;7557;51.698;3.942;2023-04-01T01:45:21;10.20;99.90
9223;DHT22;7557;51.698;3.942;2023-04-01T01:47:51;10.20;99.90
9223;DHT22;7557;51.698;3.942;2023-04-01T01:50:21;10.20;99.90
9223;DHT22;7557;51.698;3.942;2023-04-01T01:52:49;10.20;99.90
9223;DHT22;7557;51.698;3.942;2023-04-01T01:55:28;10.20;99.90
9223;DHT22;7557;51.698;3.942;2023-04-01T01:57:59;10.20;99.90
9223;DHT22;7557;51.698;3.942;2023-04-01T02:00:28;10.20;99.90
9223;DHT22;7557;51.698;3.942;2023-04-01T02:02:57;10.20;99.90
9223;DHT22;7557;51.698;3.942;2023-04-01T02:05:29;10.20;99.90
9223;DHT22;7557;51.698;3.942;2023-04-01T02:08:01;10.20;99.90
9223;DHT22;7557;51.698;3.942;2023-04-01T02:10:32;10.20;99.90
9223;DHT22;7557;51.698;3.942;2023-04-01T02:13:05;10.10;99.90
9223;DHT22;7557;51.698;3.942;2023-04-01T02:15:37;10.10;99.90
9223;DHT22;7557;51.698;3.942;2023-04-01T02:18:08;10.10;99.90
9223;DHT22;7557;51.698;3.942;2023-04-01T02:20:41;10.10;99.90
9223;DHT22;7557;51.698;3.942;2023-04-01T02:23:10;10.20;99.90
9223;DHT22;7557;51.698;3.942;2023-04-01T02:25:38;10.20;99.90
9223;DHT22;7557;51.698;3.942;2023-04-01T02:28:07;10.20;99.90
9223;DHT22;7557;51.698;3.942;2023-04-01T02:30:38;10.20;99.90
9223;DHT22;7557;51.698;3.942;2023-04-01T02:33:07;10.10;99.90
9223;DHT22;7557;51.698;3.942;2023-04-01T02:35:35;10.10;99.90
9223;DHT22;7557;51.698;3.942;2023-04-01T02:38:05;10.10;99.90
9223;DHT22;7557;51.698;3.942;2023-04-01T02:40:49;10.10;99.90
9223;DHT22;7557;51.698;3.942;2023-04-01T02:43:17;10.10;99.90
9223;DHT22;7557;51.698;3.942;2023-04-01T02:45:45;10.10;99.90
9223;DHT22;7557;51.698;3.942;2023-04-01T02:48:13;10.10;99.90
9223;DHT22;7557;51.698;3.942;2023-04-01T02:50:40;10.10;99.90
9223;DHT22;7557;51.698;3.942;2023-04-01T02:53:09;10.00;99.90
9223;DHT22;7557;51.698;3.942;2023-04-01T02:55:37;10.10;99.90
9223;DHT22;7557;51.698;3.942;2023-04-01T02:58:05;10.00;99.90
9223;DHT22;7557;51.698;3.942;2023-04-01T03:00:32;10.00;99.90
9223;DHT22;7557;51.698;3.942;2023-04-01T03:03:00;9.90;99.90
9223;DHT22;7557;51.698;3.942;2023-04-01T03:05:28;10.00;99.90
9223;DHT22;7557;51.698;3.942;2023-04-01T03:07:56;10.00;99.90
9223;DHT22;7557;51.698;3.942;2023-04-01T03:10:25;9.90;99.90
9223;DHT22;7557;51.698;3.942;2023-04-01T03:12:52;10.00;99.90
9223;DHT22;7557;51.698;3.942;2023-04-01T03:15:20;9.90;99.90
9223;DHT22;7557;51.698;3.942;2023-04-01T03:17:47;9.90;99.90
9223;DHT22;7557;51.698;3.942;2023-04-01T03:20:15;9.90;99.90
9223;DHT22;7557;51.698;3.942;2023-04-01T03:22:43;9.90;99.90
9223;DHT22;7557;51.698;3.942;2023-04-01T03:25:12;9.90;99.90
9223;DHT22;7557;51.698;3.942;2023-04-01T03:27:41;9.90;99.90
9223;DHT22;7557;51.698;3.942;2023-04-01T03:30:09;9.90;99.90
9223;DHT22;7557;51.698;3.942;2023-04-01T03:32:36;9.90;99.90
9223;DHT22;7557;51.698;3.942;2023-04-01T03:35:05;9.90;99.90
9223;DHT22;7557;51.698;3.942;2023-04-01T03:37:33;9.90;99.90
9223;DHT22;7557;51.698;3.942;2023-04-01T03:40:00;9.90;99.90
9223;DHT22;7557;51.698;3.942;2023-04-01T03:42:28;9.90;99.90
9223;DHT22;7557;51.698;3.942;2023-04-01T03:44:58;9.90;99.90
9223;DHT22;7557;51.698;3.942;2023-04-01T03:47:26;9.90;99.90
9223;DHT22;7557;51.698;3.942;2023-04-01T03:49:53;9.90;99.90
9223;DHT22;7557;51.698;3.942;2023-04-01T03:52:21;9.90;99.90
9223;DHT22;7557;51.698;3.942;2023-04-01T03:54:49;9.90;99.90
9223;DHT22;7557;51.698;3.942;2023-04-01T03:57:17;9.90;99.90
9223;DHT22;7557;51.698;3.942;2023-04-01T03:59:44;9.90;99.90
9223;DHT22;7557;51.698;3.942;2023-04-01T04:02:14;9.90;99.90
9223;DHT22;7557;51.698;3.942;2023-04-01T04:04:41;9.90;99.90
9223;DHT22;7557;51.698;3.942;2023-04-01T04:07:09;9.90;99.90
9223;DHT22;7557;51.698;3.942;2023-04-01T04:09:36;9.90;99.90
9223;DHT22;7557;51.698;3.942;2023-04-01T04:12:04;9.90;99.90
9223;DHT22;7557;51.698;3.942;2023-04-01T04:14:33;9.90;99.90
9223;DHT22;7557;51.698;3.942;2023-04-01T04:17:00;9.90;99.90
9223;DHT22;7557;51.698;3.942;2023-04-01T04:19:33;9.90;99.90
9223;DHT22;7557;51.698;3.942;2023-04-01T04:22:00;9.90;99.90
9223;DHT22;7557;51.698;3.942;2023-04-01T04:24:28;9.90;99.90
9223;DHT22;7557;51.698;3.942;2023-04-01T04:26:56;9.90;99.90
9223;DHT22;7557;51.698;3.942;2023-04-01T04:29:23;9.90;99.90
9223;DHT22;7557;51.698;3.942;2023-04-01T04:31:51;9.90;99.90
9223;DHT22;7557;51.698;3.942;2023-04-01T04:34:18;9.90;99.90
9223;DHT22;7557;51.698;3.942;2023-04-01T04:36:49;9.90;99.90
9223;DHT22;7557;51.698;3.942;2023-04-01T04:39:17;9.90;99.90
9223;DHT22;7557;51.698;3.942;2023-04-01T04:41:44;9.90;99.90
9223;DHT22;7557;51.698;3.942;2023-04-01T04:44:11;9.90;99.90
9223;DHT22;7557;51.698;3.942;2023-04-01T04:46:39;9.90;99.90
9223;DHT22;7557;51.698;3.942;2023-04-01T04:49:07;9.90;99.90
9223;DHT22;7557;51.698;3.942;2023-04-01T04:51:34;9.90;99.90
9223;DHT22;7557;51.698;3.942;2023-04-01T04:54:04;9.90;99.90
9223;DHT22;7557;51.698;3.942;2023-04-01T04:56:32;9.90;99.90
9223;DHT22;7557;51.698;3.942;2023-04-01T04:59:00;9.90;99.90
9223;DHT22;7557;51.698;3.942;2023-04-01T05:01:27;9.90;99.90
9223;DHT22;7557;51.698;3.942;2023-04-01T05:03:55;9.90;99.90
9223;DHT22;7557;51.698;3.942;2023-04-01T05:06:23;9.90;99.90
9223;DHT22;7557;51.698;3.942;2023-04-01T05:08:52;9.90;99.90
9223;DHT22;7557;51.698;3.942;2023-04-01T05:11:21;9.90;99.90
9223;DHT22;7557;51.698;3.942;2023-04-01T05:13:49;9.90;99.90
9223;DHT22;7557;51.698;3.942;2023-04-01T05:16:18;9.90;99.90
9223;DHT22;7557;51.698;3.942;2023-04-01T05:18:46;9.90;99.90
9223;DHT22;7557;51.698;3.942;2023-04-01T05:21:14;9.90;99.90
9223;DHT22;7557;51.698;3.942;2023-04-01T05:23:42;9.90;99.90
9223;DHT22;7557;51.698;3.942;2023-04-01T05:26:11;9.90;99.90
9223;DHT22;7557;51.698;3.942;2023-04-01T05:28:41;9.80;99.90
9223;DHT22;7557;51.698;3.942;2023-04-01T05:31:09;9.80;99.90
9223;DHT22;7557;51.698;3.942;2023-04-01T05:33:36;9.80;99.90
9223;DHT22;7557;51.698;3.942;2023-04-01T05:36:08;9.80;99.90
9223;DHT22;7557;51.698;3.942;2023-04-01T05:38:36;9.80;99.90
9223;DHT22;7557;51.698;3.942;2023-04-01T05:41:04;9.90;99.90
9223;DHT22;7557;51.698;3.942;2023-04-01T05:43:31;9.90;99.90
9223;DHT22;7557;51.698;3.942;2023-04-01T05:46:00;9.90;99.90
9223;DHT22;7557;51.698;3.942;2023-04-01T05:48:28;9.90;99.90
9223;DHT22;7557;51.698;3.942;2023-04-01T05:50:56;9.90;99.90
9223;DHT22;7557;51.698;3.942;2023-04-01T05:53:23;9.90;99.90
9223;DHT22;7557;51.698;3.942;2023-04-01T05:55:51;9.90;99.90
9223;DHT22;7557;51.698;3.942;2023-04-01T05:58:18;9.90;99.90
9223;DHT22;7557;51.698;3.942;2023-04-01T06:00:46;9.90;99.90
9223;DHT22;7557;51.698;3.942;2023-04-01T06:03:15;9.90;99.90
9223;DHT22;7557;51.698;3.942;2023-04-01T06:05:43;9.90;99.90
9223;DHT22;7557;51.698;3.942;2023-04-01T06:08:12;9.90;99.90
9223;DHT22;7557;51.698;3.942;2023-04-01T06:10:52;9.80;99.90
9223;DHT22;7557;51.698;3.942;2023-04-01T06:13:27;9.80;99.90
9223;DHT22;7557;51.698;3.942;2023-04-01T06:16:04;9.80;99.90
9223;DHT22;7557;51.698;3.942;2023-04-01T06:19:05;9.80;99.90
9223;DHT22;7557;51.698;3.942;2023-04-01T06:22:10;9.80;99.90
9223;DHT22;7557;51.698;3.942;2023-04-01T06:25:01;9.80;99.90
9223;DHT22;7557;51.698;3.942;2023-04-01T06:27:48;9.80;99.90
9223;DHT22;7557;51.698;3.942;2023-04-01T06:30:33;9.80;99.90
9223;DHT22;7557;51.698;3.942;2023-04-01T06:33:30;9.80;99.90
9223;DHT22;7557;51.698;3.942;2023-04-01T06:36:11;9.80;99.90
9223;DHT22;7557;51.698;3.942;2023-04-01T06:39:02;9.80;99.90
9223;DHT22;7557;51.698;3.942;2023-04-01T06:41:44;9.80;99.90
9223;DHT22;7557;51.698;3.942;2023-04-01T06:44:18;9.80;99.90
9223;DHT22;7557;51.698;3.942;2023-04-01T06:46:54;9.80;99.90
9223;DHT22;7557;51.698;3.942;2023-04-01T06:49:37;9.80;99.90
9223;DHT22;7557;51.698;3.942;2023-04-01T06:52:16;9.70;99.90
9223;DHT22;7557;51.698;3.942;2023-04-01T06:54:49;9.80;99.90
9223;DHT22;7557;51.698;3.942;2023-04-01T06:57:23;9.80;99.90
9223;DHT22;7557;51.698;3.942;2023-04-01T06:59:57;9.80;99.90
9223;DHT22;7557;51.698;3.942;2023-04-01T07:02:34;9.80;99.90
9223;DHT22;7557;51.698;3.942;2023-04-01T07:05:04;9.80;99.90
9223;DHT22;7557;51.698;3.942;2023-04-01T07:07:37;9.80;99.90
9223;DHT22;7557;51.698;3.942;2023-04-01T07:10:11;9.80;99.90
9223;DHT22;7557;51.698;3.942;2023-04-01T07:12:44;9.80;99.90
9223;DHT22;7557;51.698;3.942;2023-04-01T07:15:18;9.90;99.90
9223;DHT22;7557;51.698;3.942;2023-04-01T07:17:50;9.90;99.90
9223;DHT22;7557;51.698;3.942;2023-04-01T07:20:23;9.90;99.90
9223;DHT22;7557;51.698;3.942;2023-04-01T07:22:57;9.90;99.90
9223;DHT22;7557;51.698;3.942;2023-04-01T07:25:27;9.90;99.90
9223;DHT22;7557;51.698;3.942;2023-04-01T07:28:00;10.00;99.90
9223;DHT22;7557;51.698;3.942;2023-04-01T07:30:33;10.00;99.90
9223;DHT22;7557;51.698;3.942;2023-04-01T07:33:07;10.00;99.90
9223;DHT22;7557;51.698;3.942;2023-04-01T07:35:38;10.00;99.90
9223;DHT22;7557;51.698;3.942;2023-04-01T07:38:19;10.00;99.90
9223;DHT22;7557;51.698;3.942;2023-04-01T07:40:55;10.00;99.90
9223;DHT22;7557;51.698;3.942;2023-04-01T07:43:40;9.90;99.90
9223;DHT22;7557;51.698;3.942;2023-04-01T07:46:17;10.00;99.90
9223;DHT22;7557;51.698;3.942;2023-04-01T07:48:54;9.90;99.90
9223;DHT22;7557;51.698;3.942;2023-04-01T07:51:27;10.00;99.90
9223;DHT22;7557;51.698;3.942;2023-04-01T07:54:03;9.90;99.90
9223;DHT22;7557;51.698;3.942;2023-04-01T07:56:38;9.90;99.90
9223;DHT22;7557;51.698;3.942;2023-04-01T07:59:17;10.00;99.90
9223;DHT22;7557;51.698;3.942;2023-04-01T08:01:57;10.00;99.90
9223;DHT22;7557;51.698;3.942;2023-04-01T08:04:46;10.00;99.90
9223;DHT22;7557;51.698;3.942;2023-04-01T08:07:18;9.90;99.90
9223;DHT22;7557;51.698;3.942;2023-04-01T08:09:54;10.00;99.90
9223;DHT22;7557;51.698;3.942;2023-04-01T08:12:33;10.00;99.90
9223;DHT22;7557;51.698;3.942;2023-04-01T08:15:11;10.00;99.90
9223;DHT22;7557;51.698;3.942;2023-04-01T08:17:54;10.00;99.90
9223;DHT22;7557;51.698;3.942;2023-04-01T08:20:29;9.90;99.90
9223;DHT22;7557;51.698;3.942;2023-04-01T08:23:06;9.90;99.90
9223;DHT22;7557;51.698;3.942;2023-04-01T08:25:39;9.90;99.90
9223;DHT22;7557;51.698;3.942;2023-04-01T08:28:13;9.90;99.90
9223;DHT22;7557;51.698;3.942;2023-04-01T08:30:47;9.90;99.90
9223;DHT22;7557;51.698;3.942;2023-04-01T08:33:19;9.90;99.90
9223;DHT22;7557;51.698;3.942;2023-04-01T08:35:52;9.90;99.90
9223;DHT22;7557;51.698;3.942;2023-04-01T08:38:26;9.90;99.90
9223;DHT22;7557;51.698;3.942;2023-04-01T08:41:21;10.00;99.90
9223;DHT22;7557;51.698;3.942;2023-04-01T08:44:11;10.10;99.90
9223;DHT22;7557;51.698;3.942;2023-04-01T08:47:03;10.10;99.90
9223;DHT22;7557;51.698;3.942;2023-04-01T08:49:56;10.10;99.90
9223;DHT22;7557;51.698;3.942;2023-04-01T08:52:34;10.10;99.90
9223;DHT22;7557;51.698;3.942;2023-04-01T09:01:21;10.20;99.90
9223;DHT22;7557;51.698;3.942;2023-04-01T09:04:05;10.30;99.90
9223;DHT22;7557;51.698;3.942;2023-04-01T09:06:47;10.20;99.90
9223;DHT22;7557;51.698;3.942;2023-04-01T09:21:41;10.30;99.90
9223;DHT22;7557;51.698;3.942;2023-04-01T09:27:26;10.30;99.90
9223;DHT22;7557;51.698;3.942;2023-04-01T09:36:03;10.30;99.90
9223;DHT22;7557;51.698;3.942;2023-04-01T09:38:39;10.30;99.90
9223;DHT22;7557;51.698;3.942;2023-04-01T09:41:19;10.20;99.90
9223;DHT22;7557;51.698;3.942;2023-04-01T09:44:01;10.30;99.90
9223;DHT22;7557;51.698;3.942;2023-04-01T09:46:43;10.30;99.90
9223;DHT22;7557;51.698;3.942;2023-04-01T09:52:26;10.30;99.90
9223;DHT22;7557;51.698;3.942;2023-04-01T09:55:20;10.30;99.90
9223;DHT22;7557;51.698;3.942;2023-04-01T09:58:19;10.30;99.90
9223;DHT22;7557;51.698;3.942;2023-04-01T10:10:30;10.40;99.90
9223;DHT22;7557;51.698;3.942;2023-04-01T10:19:24;10.50;99.90
9223;DHT22;7557;51.698;3.942;2023-04-01T10:22:04;10.40;99.90
9223;DHT22;7557;51.698;3.942;2023-04-01T10:37:00;10.40;99.90
9223;DHT22;7557;51.698;3.942;2023-04-01T10:39:46;10.40;99.90
9223;DHT22;7557;51.698;3.942;2023-04-01T10:42:54;10.30;99.90
9223;DHT22;7557;51.698;3.942;2023-04-01T10:46:01;10.30;99.90
9223;DHT22;7557;51.698;3.942;2023-04-01T10:49:16;10.30;99.90
9223;DHT22;7557;51.698;3.942;2023-04-01T10:52:21;10.30;99.90
9223;DHT22;7557;51.698;3.942;2023-04-01T10:55:11;10.30;99.90
9223;DHT22;7557;51.698;3.942;2023-04-01T11:01:22;10.30;99.90
9223;DHT22;7557;51.698;3.942;2023-04-01T11:16:57;10.40;99.90
9223;DHT22;7557;51.698;3.942;2023-04-01T11:23:07;10.40;99.90
9223;DHT22;7557;51.698;3.942;2023-04-01T11:26:04;10.40;99.90
9223;DHT22;7557;51.698;3.942;2023-04-01T11:29:19;10.40;99.90
9223;DHT22;7557;51.698;3.942;2023-04-01T11:32:01;10.50;99.90
9223;DHT22;7557;51.698;3.942;2023-04-01T11:34:42;10.40;99.90
9223;DHT22;7557;51.698;3.942;2023-04-01T11:37:21;10.50;99.90
9223;DHT22;7557;51.698;3.942;2023-04-01T11:40:01;10.50;99.90
9223;DHT22;7557;51.698;3.942;2023-04-01T11:42:40;10.50;99.90
9223;DHT22;7557;51.698;3.942;2023-04-01T11:45:25;10.50;99.90
9223;DHT22;7557;51.698;3.942;2023-04-01T11:51:04;10.50;99.90
9223;DHT22;7557;51.698;3.942;2023-04-01T11:53:44;10.50;99.90
9223;DHT22;7557;51.698;3.942;2023-04-01T11:56:27;10.50;99.90
9223;DHT22;7557;51.698;3.942;2023-04-01T12:02:24;10.50;99.90
9223;DHT22;7557;51.698;3.942;2023-04-01T12:05:04;10.50;99.90
9223;DHT22;7557;51.698;3.942;2023-04-01T12:07:53;10.40;99.90
9223;DHT22;7557;51.698;3.942;2023-04-01T12:10:28;10.50;99.90
9223;DHT22;7557;51.698;3.942;2023-04-01T12:13:04;10.50;99.90
9223;DHT22;7557;51.698;3.942;2023-04-01T12:15:51;10.50;99.90
9223;DHT22;7557;51.698;3.942;2023-04-01T12:18:24;10.40;99.90
9223;DHT22;7557;51.698;3.942;2023-04-01T12:20:59;10.40;99.90
9223;DHT22;7557;51.698;3.942;2023-04-01T12:23:52;10.30;99.90
9223;DHT22;7557;51.698;3.942;2023-04-01T12:26:33;10.30;99.90
9223;DHT22;7557;51.698;3.942;2023-04-01T12:29:30;10.40;99.90
9223;DHT22;7557;51.698;3.942;2023-04-01T12:32:09;10.50;99.90
9223;DHT22;7557;51.698;3.942;2023-04-01T12:35:00;10.50;99.90
9223;DHT22;7557;51.698;3.942;2023-04-01T12:37:38;10.50;99.90
9223;DHT22;7557;51.698;3.942;2023-04-01T12:43:17;10.50;99.90
9223;DHT22;7557;51.698;3.942;2023-04-01T12:45:52;10.50;99.90
9223;DHT22;7557;51.698;3.942;2023-04-01T12:51:44;10.40;99.90
9223;DHT22;7557;51.698;3.942;2023-04-01T12:57:43;10.40;99.90
9223;DHT22;7557;51.698;3.942;2023-04-01T13:00:39;10.50;99.90
9223;DHT22;7557;51.698;3.942;2023-04-01T13:03:20;10.50;99.90
9223;DHT22;7557;51.698;3.942;2023-04-01T13:06:32;10.50;99.90
9223;DHT22;7557;51.698;3.942;2023-04-01T13:09:20;10.50;99.90
9223;DHT22;7557;51.698;3.942;2023-04-01T13:12:14;10.60;99.90
9223;DHT22;7557;51.698;3.942;2023-04-01T13:17:53;10.70;99.90
9223;DHT22;7557;51.698;3.942;2023-04-01T13:20:38;10.60;99.90
9223;DHT22;7557;51.698;3.942;2023-04-01T13:23:27;10.60;99.90
9223;DHT22;7557;51.698;3.942;2023-04-01T13:26:04;10.60;99.90
9223;DHT22;7557;51.698;3.942;2023-04-01T13:28:38;10.60;99.90
9223;DHT22;7557;51.698;3.942;2023-04-01T13:31:12;10.60;99.90
9223;DHT22;7557;51.698;3.942;2023-04-01T13:33:47;10.60;99.90
9223;DHT22;7557;51.698;3.942;2023-04-01T13:36:26;10.70;99.90
9223;DHT22;7557;51.698;3.942;2023-04-01T13:39:10;10.60;99.90
9223;DHT22;7557;51.698;3.942;2023-04-01T13:41:55;10.60;99.90
9223;DHT22;7557;51.698;3.942;2023-04-01T13:44:32;10.60;99.90
9223;DHT22;7557;51.698;3.942;2023-04-01T13:47:22;10.60;99.90
9223;DHT22;7557;51.698;3.942;2023-04-01T13:56:12;10.50;99.90
9223;DHT22;7557;51.698;3.942;2023-04-01T13:59:03;10.50;99.90
9223;DHT22;7557;51.698;3.942;2023-04-01T14:01:41;10.50;99.90
9223;DHT22;7557;51.698;3.942;2023-04-01T14:04:36;10.60;99.90
9223;DHT22;7557;51.698;3.942;2023-04-01T14:07:15;10.60;99.90
9223;DHT22;7557;51.698;3.942;2023-04-01T14:09:56;10.50;99.90
9223;DHT22;7557;51.698;3.942;2023-04-01T14:12:30;10.50;99.90
9223;DHT22;7557;51.698;3.942;2023-04-01T14:18:11;10.50;99.90
9223;DHT22;7557;51.698;3.942;2023-04-01T14:20:48;10.40;99.90
9223;DHT22;7557;51.698;3.942;2023-04-01T14:23:42;10.40;99.90
9223;DHT22;7557;51.698;3.942;2023-04-01T14:26:28;10.40;99.90
9223;DHT22;7557;51.698;3.942;2023-04-01T14:29:07;10.40;99.90
9223;DHT22;7557;51.698;3.942;2023-04-01T14:31:59;10.40;99.90
9223;DHT22;7557;51.698;3.942;2023-04-01T14:34:43;10.50;99.90
9223;DHT22;7557;51.698;3.942;2023-04-01T14:37:43;10.40;99.90
9223;DHT22;7557;51.698;3.942;2023-04-01T14:40:33;10.30;99.90
9223;DHT22;7557;51.698;3.942;2023-04-01T14:43:25;10.30;99.90
9223;DHT22;7557;51.698;3.942;2023-04-01T14:48:59;10.40;99.90
9223;DHT22;7557;51.698;3.942;2023-04-01T14:51:31;10.40;99.90
9223;DHT22;7557;51.698;3.942;2023-04-01T14:54:06;10.30;99.90
9223;DHT22;7557;51.698;3.942;2023-04-01T14:56:40;10.40;99.90
9223;DHT22;7557;51.698;3.942;2023-04-01T14:59:15;10.40;99.90
9223;DHT22;7557;51.698;3.942;2023-04-01T15:01:50;10.40;99.90
9223;DHT22;7557;51.698;3.942;2023-04-01T15:04:49;10.40;99.90
9223;DHT22;7557;51.698;3.942;2023-04-01T15:07:54;10.30;99.90
9223;DHT22;7557;51.698;3.942;2023-04-01T15:10:53;10.30;99.90
9223;DHT22;7557;51.698;3.942;2023-04-01T15:13:59;10.20;99.90
9223;DHT22;7557;51.698;3.942;2023-04-01T15:16:36;10.20;99.90
9223;DHT22;7557;51.698;3.942;2023-04-01T15:19:15;10.10;99.90
9223;DHT22;7557;51.698;3.942;2023-04-01T15:21:55;10.10;99.90
9223;DHT22;7557;51.698;3.942;2023-04-01T15:24:38;10.10;99.90
9223;DHT22;7557;51.698;3.942;2023-04-01T15:27:27;10.10;99.90
9223;DHT22;7557;51.698;3.942;2023-04-01T15:30:17;10.00;99.90
9223;DHT22;7557;51.698;3.942;2023-04-01T15:32:55;9.90;99.90
9223;DHT22;7557;51.698;3.942;2023-04-01T15:35:36;9.90;99.90
9223;DHT22;7557;51.698;3.942;2023-04-01T15:38:09;9.80;99.90
9223;DHT22;7557;51.698;3.942;2023-04-01T15:40:44;9.80;99.90
9223;DHT22;7557;51.698;3.942;2023-04-01T15:43:25;9.80;99.90
9223;DHT22;7557;51.698;3.942;2023-04-01T15:45:58;9.80;99.90
9223;DHT22;7557;51.698;3.942;2023-04-01T15:48:49;9.80;99.90
9223;DHT22;7557;51.698;3.942;2023-04-01T15:51:32;9.70;99.90
9223;DHT22;7557;51.698;3.942;2023-04-01T15:57:23;9.70;99.90
9223;DHT22;7557;51.698;3.942;2023-04-01T16:00:12;9.70;99.90
9223;DHT22;7557;51.698;3.942;2023-04-01T16:02:48;9.70;99.90
9223;DHT22;7557;51.698;3.942;2023-04-01T16:05:33;9.70;99.90
9223;DHT22;7557;51.698;3.942;2023-04-01T16:11:17;9.80;99.90
9223;DHT22;7557;51.698;3.942;2023-04-01T16:13:54;9.90;99.90
9223;DHT22;7557;51.698;3.942;2023-04-01T16:16:36;9.90;99.90
9223;DHT22;7557;51.698;3.942;2023-04-01T16:19:26;9.90;99.90
9223;DHT22;7557;51.698;3.942;2023-04-01T16:22:02;10.00;99.90
9223;DHT22;7557;51.698;3.942;2023-04-01T16:24:35;10.00;99.90
9223;DHT22;7557;51.698;3.942;2023-04-01T16:27:11;10.10;99.90
9223;DHT22;7557;51.698;3.942;2023-04-01T16:29:45;10.00;99.90
9223;DHT22;7557;51.698;3.942;2023-04-01T16:32:32;10.00;99.90
9223;DHT22;7557;51.698;3.942;2023-04-01T16:35:23;10.00;99.90
9223;DHT22;7557;51.698;3.942;2023-04-01T16:37:55;9.90;99.90
9223;DHT22;7557;51.698;3.942;2023-04-01T16:40:37;9.90;99.90
9223;DHT22;7557;51.698;3.942;2023-04-01T16:43:14;9.90;99.90
9223;DHT22;7557;51.698;3.942;2023-04-01T16:45:47;9.90;99.90
9223;DHT22;7557;51.698;3.942;2023-04-01T16:48:25;9.90;99.90
9223;DHT22;7557;51.698;3.942;2023-04-01T16:50:59;9.90;99.90
9223;DHT22;7557;51.698;3.942;2023-04-01T16:53:36;9.90;99.90
9223;DHT22;7557;51.698;3.942;2023-04-01T16:56:12;9.90;99.90
9223;DHT22;7557;51.698;3.942;2023-04-01T16:58:55;9.80;99.90
9223;DHT22;7557;51.698;3.942;2023-04-01T17:01:26;9.80;99.90
9223;DHT22;7557;51.698;3.942;2023-04-01T17:04:00;9.80;99.90
9223;DHT22;7557;51.698;3.942;2023-04-01T17:06:36;9.80;99.90
9223;DHT22;7557;51.698;3.942;2023-04-01T17:09:20;9.80;99.90
9223;DHT22;7557;51.698;3.942;2023-04-01T17:11:58;9.80;99.90
9223;DHT22;7557;51.698;3.942;2023-04-01T17:14:32;9.80;99.90
9223;DHT22;7557;51.698;3.942;2023-04-01T17:17:18;9.80;99.90
9223;DHT22;7557;51.698;3.942;2023-04-01T17:19:56;9.80;99.90
9223;DHT22;7557;51.698;3.942;2023-04-01T17:22:33;9.80;99.90
9223;DHT22;7557;51.698;3.942;2023-04-01T17:25:22;9.80;99.90
9223;DHT22;7557;51.698;3.942;2023-04-01T17:27:59;9.80;99.90
9223;DHT22;7557;51.698;3.942;2023-04-01T17:30:33;9.80;99.90
9223;DHT22;7557;51.698;3.942;2023-04-01T17:36:20;9.80;99.90
9223;DHT22;7557;51.698;3.942;2023-04-01T17:38:59;9.80;99.90
9223;DHT22;7557;51.698;3.942;2023-04-01T17:41:46;9.80;99.90
9223;DHT22;7557;51.698;3.942;2023-04-01T17:44:25;9.80;99.90
9223;DHT22;7557;51.698;3.942;2023-04-01T17:49:56;9.80;99.90
9223;DHT22;7557;51.698;3.942;2023-04-01T17:52:34;9.80;99.90
9223;DHT22;7557;51.698;3.942;2023-04-01T17:58:18;9.90;99.90
9223;DHT22;7557;51.698;3.942;2023-04-01T18:01:08;9.90;99.90
9223;DHT22;7557;51.698;3.942;2023-04-01T18:06:48;9.90;99.90
9223;DHT22;7557;51.698;3.942;2023-04-01T18:09:28;9.90;99.90
9223;DHT22;7557;51.698;3.942;2023-04-01T18:12:11;9.90;99.90
9223;DHT22;7557;51.698;3.942;2023-04-01T18:15:03;9.90;99.90
9223;DHT22;7557;51.698;3.942;2023-04-01T18:17:42;9.90;99.90
9223;DHT22;7557;51.698;3.942;2023-04-01T18:20:31;9.90;99.90
9223;DHT22;7557;51.698;3.942;2023-04-01T18:23:03;9.90;99.90
9223;DHT22;7557;51.698;3.942;2023-04-01T18:25:38;9.90;99.90
9223;DHT22;7557;51.698;3.942;2023-04-01T18:28:21;9.80;99.90
9223;DHT22;7557;51.698;3.942;2023-04-01T18:30:53;9.90;99.90
9223;DHT22;7557;51.698;3.942;2023-04-01T18:33:25;9.80;99.90
9223;DHT22;7557;51.698;3.942;2023-04-01T18:36:08;9.90;99.90
9223;DHT22;7557;51.698;3.942;2023-04-01T18:38:38;9.90;99.90
9223;DHT22;7557;51.698;3.942;2023-04-01T18:41:14;9.90;99.90
9223;DHT22;7557;51.698;3.942;2023-04-01T18:43:53;9.90;99.90
9223;DHT22;7557;51.698;3.942;2023-04-01T18:46:31;9.90;99.90
9223;DHT22;7557;51.698;3.942;2023-04-01T18:49:07;9.90;99.90
9223;DHT22;7557;51.698;3.942;2023-04-01T18:51:46;9.90;99.90
9223;DHT22;7557;51.698;3.942;2023-04-01T18:54:19;9.90;99.90
9223;DHT22;7557;51.698;3.942;2023-04-01T18:56:50;9.90;99.90
9223;DHT22;7557;51.698;3.942;2023-04-01T18:59:21;9.90;99.90
9223;DHT22;7557;51.698;3.942;2023-04-01T19:02:02;9.90;99.90
9223;DHT22;7557;51.698;3.942;2023-04-01T19:04:35;9.90;99.90
9223;DHT22;7557;51.698;3.942;2023-04-01T19:07:39;9.90;99.90
9223;DHT22;7557;51.698;3.942;2023-04-01T19:10:15;9.90;99.90
9223;DHT22;7557;51.698;3.942;2023-04-01T19:12:51;9.90;99.90
9223;DHT22;7557;51.698;3.942;2023-04-01T19:15:30;9.90;99.90
9223;DHT22;7557;51.698;3.942;2023-04-01T19:21:00;9.90;99.90
9223;DHT22;7557;51.698;3.942;2023-04-01T19:24:04;9.90;99.90
9223;DHT22;7557;51.698;3.942;2023-04-01T19:26:35;9.90;99.90
9223;DHT22;7557;51.698;3.942;2023-04-01T19:29:16;9.90;99.90